createdAt,value
2019-04-25T00:01:58.635Z,99.90
2019-04-25T00:04:27.538Z,99.90
2019-04-25T00:06:56.300Z,99.90
2019-04-25T00:09:27.302Z,99.90
2019-04-25T00:11:56.050Z,99.90
2019-04-25T00:14:25.456Z,99.90
2019-04-25T00:16:54.971Z,99.90
2019-04-25T00:19:23.851Z,99.90
2019-04-25T00:22:05.919Z,99.90
2019-04-25T00:24:52.990Z,99.90
2019-04-25T00:27:23.651Z,99.90
2019-04-25T00:29:52.951Z,99.90
2019-04-25T00:32:21.772Z,99.90
2019-04-25T00:34:51.782Z,99.90
2019-04-25T00:37:22.421Z,99.90
2019-04-25T00:39:51.701Z,99.90
2019-04-25T00:42:20.700Z,99.90
2019-04-25T00:44:49.565Z,99.90
2019-04-25T00:47:18.407Z,99.90
2019-04-25T00:49:47.922Z,99.90
2019-04-25T00:52:16.779Z,99.90
2019-04-25T00:54:46.278Z,99.90
2019-04-25T00:57:15.306Z,99.90
2019-04-25T00:59:51.754Z,99.90
2019-04-25T01:02:26.543Z,99.90
2019-04-25T01:04:55.402Z,99.90
2019-04-25T01:07:24.167Z,99.90
2019-04-25T01:09:53.609Z,99.90
2019-04-25T01:12:23.394Z,99.90
2019-04-25T01:14:52.888Z,99.90
2019-04-25T01:17:22.935Z,99.90
2019-04-25T01:19:51.803Z,99.90
2019-04-25T01:22:20.605Z,99.90
2019-04-25T01:24:49.429Z,99.90
2019-04-25T01:27:18.199Z,99.90
2019-04-25T01:29:47.774Z,99.90
2019-04-25T01:32:19.860Z,99.90
2019-04-25T01:35:19.747Z,99.90
2019-04-25T01:38:14.541Z,99.90
2019-04-25T01:40:56.199Z,99.90
2019-04-25T01:43:33.168Z,99.90
2019-04-25T01:46:03.334Z,99.90
2019-04-25T01:48:33.377Z,99.90
2019-04-25T01:51:02.133Z,99.90
2019-04-25T01:53:31.363Z,99.90
2019-04-25T01:56:04.109Z,99.90
2019-04-25T01:58:30.531Z,99.90
2019-04-25T02:00:59.319Z,99.90
2019-04-25T02:03:28.055Z,99.90
2019-04-25T02:05:57.323Z,99.90
2019-04-25T02:08:26.141Z,99.90
2019-04-25T02:11:05.216Z,99.90
2019-04-25T02:13:35.826Z,99.90
2019-04-25T02:16:05.353Z,99.90
2019-04-25T02:18:34.224Z,99.90
2019-04-25T02:21:04.500Z,99.90
2019-04-25T02:23:34.138Z,99.90
2019-04-25T02:26:13.430Z,99.90
2019-04-25T02:28:33.902Z,99.90
2019-04-25T02:31:07.829Z,99.90
2019-04-25T02:33:34.118Z,99.90
2019-04-25T02:36:08.221Z,99.90
2019-04-25T02:38:34.169Z,99.90
2019-04-25T02:41:06.915Z,99.90
2019-04-25T02:43:35.045Z,99.90
2019-04-25T02:46:24.802Z,99.90
2019-04-25T02:49:09.644Z,99.90
2019-04-25T02:51:55.066Z,99.90
2019-04-25T02:54:24.532Z,99.90
2019-04-25T02:56:54.763Z,99.90
2019-04-25T02:59:25.389Z,99.90
2019-04-25T03:01:54.345Z,99.90
2019-04-25T03:04:24.023Z,99.90
2019-04-25T03:06:55.149Z,99.90
2019-04-25T03:09:24.970Z,99.90
2019-04-25T03:11:54.791Z,99.90
2019-04-25T03:14:26.373Z,99.90
2019-04-25T03:16:54.420Z,99.90
2019-04-25T03:19:34.200Z,99.90
2019-04-25T03:22:09.204Z,99.90
2019-04-25T03:24:35.215Z,99.90
2019-04-25T03:27:05.188Z,99.90
2019-04-25T03:29:34.400Z,99.90
2019-04-25T03:32:07.259Z,99.90
2019-04-25T03:34:35.160Z,99.90
2019-04-25T03:37:05.297Z,99.90
2019-04-25T03:39:34.344Z,99.90
2019-04-25T03:42:05.020Z,99.90
2019-04-25T03:44:33.815Z,99.90
2019-04-25T03:47:05.249Z,99.90
2019-04-25T03:49:33.708Z,99.90
2019-04-25T03:52:04.388Z,99.90
2019-04-25T03:54:33.413Z,99.90
2019-04-25T03:57:06.170Z,99.90
2019-04-25T03:59:33.618Z,99.90
2019-04-25T04:02:03.847Z,99.90
2019-04-25T04:04:33.533Z,99.90
2019-04-25T04:07:04.420Z,99.90
2019-04-25T04:09:33.829Z,99.90
2019-04-25T04:12:04.300Z,99.90
2019-04-25T04:14:33.868Z,99.90
2019-04-25T04:17:29.160Z,99.90
2019-04-25T04:20:15.976Z,99.90
2019-04-25T04:22:50.886Z,99.90
2019-04-25T04:25:20.219Z,99.90
2019-04-25T04:27:48.936Z,99.90
2019-04-25T04:30:17.750Z,99.90
2019-04-25T04:32:46.454Z,99.90
2019-04-25T04:35:16.127Z,99.90
2019-04-25T04:37:45.618Z,99.90
2019-04-25T04:40:16.282Z,99.90
2019-04-25T04:42:45.664Z,99.90
2019-04-25T04:45:15.769Z,99.90
2019-04-25T04:47:45.053Z,99.90
2019-04-25T04:50:14.474Z,99.90
2019-04-25T04:52:44.087Z,99.90
2019-04-25T04:55:15.766Z,99.90
2019-04-25T04:57:44.826Z,99.90
2019-04-25T05:00:14.648Z,99.90
2019-04-25T05:02:53.959Z,99.90
2019-04-25T05:05:44.637Z,99.90
2019-04-25T05:08:24.809Z,99.90
2019-04-25T05:10:54.222Z,99.90
2019-04-25T05:13:24.239Z,99.90
2019-04-25T05:15:53.286Z,99.90
2019-04-25T05:18:34.508Z,99.90
2019-04-25T05:20:54.162Z,99.90
2019-04-25T05:23:24.819Z,99.90
2019-04-25T05:25:53.886Z,99.90
2019-04-25T05:28:24.659Z,99.90
2019-04-25T05:31:16.797Z,99.90
2019-04-25T05:33:45.884Z,99.90
2019-04-25T05:36:15.502Z,99.90
2019-04-25T05:38:45.302Z,99.90
2019-04-25T05:41:30.062Z,99.90
2019-04-25T05:43:58.844Z,99.90
2019-04-25T05:46:27.560Z,99.90
2019-04-25T05:48:56.295Z,99.90
2019-04-25T05:51:25.907Z,99.90
2019-04-25T05:53:55.192Z,99.90
2019-04-25T05:56:25.833Z,99.90
2019-04-25T05:58:54.549Z,99.90
2019-04-25T06:01:24.960Z,99.90
2019-04-25T06:03:53.868Z,99.90
2019-04-25T06:06:23.648Z,99.90
2019-04-25T06:08:59.905Z,99.90
2019-04-25T06:11:44.385Z,99.90
2019-04-25T06:14:14.313Z,99.90
2019-04-25T06:16:43.715Z,99.90
2019-04-25T06:19:37.624Z,99.90
2019-04-25T06:22:08.150Z,99.90
2019-04-25T06:24:44.301Z,99.90
2019-04-25T06:27:33.237Z,99.90
2019-04-25T06:30:22.560Z,99.90
2019-04-25T06:32:53.294Z,99.90
2019-04-25T06:35:24.705Z,99.90
2019-04-25T06:37:53.678Z,99.90
2019-04-25T06:40:24.175Z,99.90
2019-04-25T06:42:53.585Z,99.90
2019-04-25T06:45:50.249Z,99.90
2019-04-25T06:48:41.432Z,99.90
2019-04-25T06:51:10.194Z,99.90
2019-04-25T06:53:38.934Z,99.90
2019-04-25T06:56:07.749Z,99.90
2019-04-25T06:58:36.667Z,99.90
2019-04-25T07:01:05.423Z,99.90
2019-04-25T07:03:35.622Z,99.90
2019-04-25T07:06:04.541Z,99.90
2019-04-25T07:08:33.762Z,99.90
2019-04-25T07:11:04.114Z,99.90
2019-04-25T07:13:36.900Z,99.90
2019-04-25T07:16:04.649Z,99.90
2019-04-25T07:18:36.348Z,99.90
2019-04-25T07:21:03.963Z,99.90
2019-04-25T07:23:33.399Z,99.90
2019-04-25T07:26:09.903Z,99.90
2019-04-25T07:28:54.973Z,99.90
2019-04-25T07:31:45.496Z,99.90
2019-04-25T07:34:19.818Z,99.90
2019-04-25T07:36:48.548Z,99.90
2019-04-25T07:39:17.355Z,99.90
2019-04-25T07:41:46.084Z,99.90
2019-04-25T07:44:14.894Z,99.90
2019-04-25T07:46:43.835Z,99.90
2019-04-25T07:49:13.447Z,99.90
2019-04-25T07:51:43.182Z,99.90
2019-04-25T07:54:14.262Z,99.90
2019-04-25T07:56:43.768Z,99.90
2019-04-25T07:59:13.871Z,99.90
2019-04-25T08:01:43.595Z,99.90
2019-04-25T08:04:13.668Z,99.90
2019-04-25T08:06:44.304Z,99.90
2019-04-25T08:09:15.417Z,99.90
2019-04-25T08:11:44.112Z,99.90
2019-04-25T08:14:20.864Z,99.90
2019-04-25T08:16:53.761Z,99.90
2019-04-25T08:19:23.607Z,99.90
2019-04-25T08:21:53.664Z,99.90
2019-04-25T08:24:24.001Z,99.90
2019-04-25T08:26:53.473Z,99.90
2019-04-25T08:29:25.224Z,99.90
2019-04-25T08:31:53.689Z,99.90
2019-04-25T08:34:24.230Z,99.90
2019-04-25T08:36:54.260Z,99.90
2019-04-25T08:39:24.073Z,99.90
2019-04-25T08:41:53.968Z,99.90
2019-04-25T08:44:24.103Z,99.90
2019-04-25T08:46:53.584Z,99.90
2019-04-25T08:49:49.472Z,99.90
2019-04-25T08:52:18.059Z,99.90
2019-04-25T08:54:57.652Z,99.90
2019-04-25T08:57:44.391Z,99.90
2019-04-25T09:00:21.256Z,99.90
2019-04-25T09:02:54.494Z,99.90
2019-04-25T09:05:26.908Z,99.90
2019-04-25T09:07:55.766Z,99.90
2019-04-25T09:10:24.469Z,99.90
2019-04-25T09:12:53.758Z,99.90
2019-04-25T09:15:24.133Z,99.90
2019-04-25T09:17:54.762Z,99.90
2019-04-25T09:20:23.819Z,99.90
2019-04-25T09:22:54.118Z,99.90
2019-04-25T09:25:23.834Z,99.90
2019-04-25T09:27:54.363Z,99.90
2019-04-25T09:30:24.094Z,99.90
2019-04-25T09:32:53.473Z,99.90
2019-04-25T09:35:23.598Z,99.90
2019-04-25T09:37:53.606Z,99.90
2019-04-25T09:40:23.976Z,99.90
2019-04-25T09:42:53.751Z,99.90
2019-04-25T09:45:40.371Z,99.90
2019-04-25T09:48:31.272Z,99.90
2019-04-25T09:51:10.819Z,99.90
2019-04-25T09:53:45.955Z,99.90
2019-04-25T09:56:16.730Z,99.90
2019-04-25T09:59:26.739Z,99.90
2019-04-25T10:01:49.456Z,99.90
2019-04-25T10:04:18.320Z,99.90
2019-04-25T10:06:47.556Z,99.90
2019-04-25T10:09:16.347Z,99.90
2019-04-25T10:11:45.409Z,99.90
2019-04-25T10:14:37.553Z,99.90
2019-04-25T10:17:06.577Z,99.90
2019-04-25T10:19:35.285Z,99.90
2019-04-25T10:22:04.053Z,99.90
2019-04-25T10:24:32.781Z,99.90
2019-04-25T10:27:01.516Z,99.90
2019-04-25T10:29:41.177Z,99.90
2019-04-25T10:32:00.848Z,99.90
2019-04-25T10:34:29.564Z,99.90
2019-04-25T10:36:58.338Z,99.90
2019-04-25T10:39:27.745Z,99.90
2019-04-25T10:41:56.465Z,99.90
2019-04-25T10:44:25.325Z,99.90
2019-04-25T10:46:54.628Z,99.90
2019-04-25T10:49:23.598Z,99.90
2019-04-25T10:51:52.496Z,99.90
2019-04-25T10:54:21.243Z,99.90
2019-04-25T10:56:49.938Z,99.90
2019-04-25T10:59:18.799Z,99.90
2019-04-25T11:01:47.648Z,99.90
2019-04-25T11:04:25.328Z,99.90
2019-04-25T11:06:55.107Z,99.90
2019-04-25T11:09:26.387Z,99.90
2019-04-25T11:11:55.138Z,99.90
2019-04-25T11:14:24.033Z,99.90
2019-04-25T11:16:55.076Z,99.90
2019-04-25T11:19:23.899Z,99.90
2019-04-25T11:21:53.772Z,99.90
2019-04-25T11:24:23.697Z,99.90
2019-04-25T11:26:55.124Z,99.90
2019-04-25T11:29:24.014Z,99.90
2019-04-25T11:31:53.496Z,99.90
2019-04-25T11:34:22.967Z,99.90
2019-04-25T11:36:51.942Z,99.90
2019-04-25T11:39:46.109Z,99.90
2019-04-25T11:42:15.654Z,99.90
2019-04-25T11:44:45.560Z,99.90
2019-04-25T11:47:15.515Z,99.90
2019-04-25T11:49:46.398Z,99.90
2019-04-25T11:52:27.640Z,99.90
2019-04-25T11:54:50.056Z,99.90
2019-04-25T11:57:18.791Z,99.90
2019-04-25T11:59:49.188Z,99.90
2019-04-25T12:02:18.531Z,99.90
2019-04-25T12:04:47.822Z,99.90
2019-04-25T12:07:17.253Z,99.90
2019-04-25T12:09:46.883Z,99.90
2019-04-25T12:12:16.673Z,99.90
2019-04-25T12:14:46.393Z,99.90
2019-04-25T12:17:15.688Z,99.90
2019-04-25T12:19:44.522Z,99.90
2019-04-25T12:22:13.577Z,99.70
2019-04-25T12:24:44.487Z,99.90
2019-04-25T12:27:16.019Z,99.10
2019-04-25T12:29:45.913Z,99.10
2019-04-25T12:32:14.989Z,99.30
2019-04-25T12:34:45.976Z,98.90
2019-04-25T12:37:14.706Z,99.10
2019-04-25T12:39:43.449Z,98.90
2019-04-25T12:42:12.175Z,98.30
2019-04-25T12:45:00.064Z,97.90
2019-04-25T12:47:30.150Z,97.70
2019-04-25T12:49:58.953Z,97.60
2019-04-25T12:52:27.911Z,97.20
2019-04-25T12:54:58.145Z,96.20
2019-04-25T12:57:27.388Z,95.60
2019-04-25T12:59:56.378Z,95.20
2019-04-25T13:02:25.247Z,95.70
2019-04-25T13:04:55.447Z,94.70
2019-04-25T13:07:24.335Z,94.90
2019-04-25T13:09:53.735Z,94.70
2019-04-25T13:12:23.433Z,94.90
2019-04-25T13:14:52.220Z,93.80
2019-04-25T13:17:21.588Z,94.10
2019-04-25T13:19:50.374Z,93.80
2019-04-25T13:22:19.654Z,94.00
2019-04-25T13:24:48.338Z,93.10
2019-04-25T13:27:29.229Z,92.30
2019-04-25T13:30:08.810Z,92.40
2019-04-25T13:32:56.590Z,91.40
2019-04-25T13:35:29.997Z,91.20
2019-04-25T13:37:59.332Z,91.50
2019-04-25T13:40:28.118Z,91.20
2019-04-25T13:42:56.804Z,91.80
2019-04-25T13:45:25.651Z,91.70
2019-04-25T13:47:54.446Z,91.20
2019-04-25T13:50:24.634Z,91.30
2019-04-25T13:52:53.571Z,91.00
2019-04-25T13:55:23.706Z,90.70
2019-04-25T13:57:53.382Z,90.60
2019-04-25T14:00:25.115Z,90.40
2019-04-25T14:02:54.950Z,89.40
2019-04-25T14:05:24.879Z,89.80
2019-04-25T14:07:54.471Z,91.20
2019-04-25T14:10:25.212Z,90.70
2019-04-25T14:12:54.394Z,90.80
2019-04-25T14:15:25.281Z,90.10
2019-04-25T14:18:13.802Z,87.50
2019-04-25T14:20:49.761Z,85.30
2019-04-25T14:23:19.302Z,83.80
2019-04-25T14:25:48.344Z,84.80
2019-04-25T14:28:17.303Z,83.60
2019-04-25T14:30:46.104Z,84.20
2019-04-25T14:33:15.160Z,84.60
2019-04-25T14:35:43.875Z,85.50
2019-04-25T14:38:13.880Z,86.50
2019-04-25T14:40:42.711Z,85.70
2019-04-25T14:43:11.461Z,84.90
2019-04-25T14:45:44.360Z,84.40
2019-04-25T14:48:10.800Z,84.00
2019-04-25T14:50:39.496Z,84.00
2019-04-25T14:53:08.212Z,83.90
2019-04-25T14:55:58.795Z,83.80
2019-04-25T14:58:30.391Z,83.50
2019-04-25T15:00:59.228Z,83.40
2019-04-25T15:03:28.003Z,84.60
2019-04-25T15:05:56.685Z,83.40
2019-04-25T15:08:26.515Z,82.90
2019-04-25T15:10:55.485Z,84.90
2019-04-25T15:13:24.280Z,83.00
2019-04-25T15:15:53.090Z,84.60
2019-04-25T15:18:22.416Z,84.50
2019-04-25T15:20:52.165Z,87.50
2019-04-25T15:23:20.934Z,84.00
2019-04-25T15:25:49.643Z,83.70
2019-04-25T15:28:18.426Z,83.10
2019-04-25T15:30:47.424Z,82.60
2019-04-25T15:33:16.347Z,84.30
2019-04-25T15:35:50.203Z,87.20
2019-04-25T15:38:25.171Z,84.80
2019-04-25T15:41:15.950Z,85.50
2019-04-25T15:44:11.216Z,83.90
2019-04-25T15:46:41.058Z,84.00
2019-04-25T15:49:10.147Z,84.40
2019-04-25T15:51:38.881Z,84.30
2019-04-25T15:54:07.829Z,84.30
2019-04-25T15:56:36.729Z,84.30
2019-04-25T15:59:05.577Z,84.70
2019-04-25T16:01:34.633Z,85.20
2019-04-25T16:04:03.463Z,87.20
2019-04-25T16:06:32.397Z,88.10
2019-04-25T16:09:01.154Z,86.30
2019-04-25T16:11:30.167Z,87.60
2019-04-25T16:13:58.989Z,84.60
2019-04-25T16:16:28.300Z,85.30
2019-04-25T16:18:57.327Z,84.90
2019-04-25T16:21:26.556Z,86.70
2019-04-25T16:23:56.840Z,84.90
2019-04-25T16:26:25.801Z,86.80
2019-04-25T16:28:54.676Z,88.10
2019-04-25T16:31:25.163Z,90.20
2019-04-25T16:33:53.928Z,90.20
2019-04-25T16:36:22.668Z,89.80
2019-04-25T16:38:51.662Z,89.70
2019-04-25T16:41:20.758Z,90.00
2019-04-25T16:43:52.987Z,88.90
2019-04-25T16:46:22.287Z,89.30
2019-04-25T16:48:51.000Z,91.00
2019-04-25T16:51:20.007Z,92.30
2019-04-25T16:53:48.733Z,92.00
2019-04-25T16:56:17.422Z,92.50
2019-04-25T16:58:46.248Z,92.40
2019-04-25T17:01:15.559Z,92.70
2019-04-25T17:03:44.739Z,92.40
2019-04-25T17:06:13.472Z,92.90
2019-04-25T17:08:42.261Z,92.90
2019-04-25T17:11:11.195Z,92.50
2019-04-25T17:13:45.810Z,92.40
2019-04-25T17:16:36.813Z,92.80
2019-04-25T17:19:11.987Z,93.30
2019-04-25T17:21:40.672Z,93.60
2019-04-25T17:24:11.980Z,93.80
2019-04-25T17:26:40.780Z,94.50
2019-04-25T17:29:13.470Z,95.80
2019-04-25T17:32:16.330Z,96.20
2019-04-25T17:34:55.089Z,96.20
2019-04-25T17:37:38.448Z,96.90
2019-04-25T17:40:12.548Z,96.40
2019-04-25T17:42:41.266Z,96.20
2019-04-25T17:45:11.748Z,96.30
2019-04-25T17:47:51.705Z,97.50
2019-04-25T17:50:12.005Z,97.20
2019-04-25T17:52:40.743Z,96.60
2019-04-25T17:55:11.703Z,96.40
2019-04-25T17:57:40.488Z,96.50
2019-04-25T18:00:11.980Z,96.40
2019-04-25T18:02:41.402Z,96.50
2019-04-25T18:05:10.170Z,96.70
2019-04-25T18:07:39.279Z,96.30
2019-04-25T18:10:09.877Z,96.30
2019-04-25T18:12:38.658Z,96.60
2019-04-25T18:15:09.249Z,96.30
2019-04-25T18:17:38.106Z,96.80
2019-04-25T18:20:17.201Z,99.60
2019-04-25T18:23:03.859Z,99.90
2019-04-25T18:25:50.297Z,99.90
2019-04-25T18:28:28.177Z,99.90
2019-04-25T18:30:57.117Z,99.90
2019-04-25T18:33:29.750Z,99.90
2019-04-25T18:36:09.908Z,99.90
2019-04-25T18:39:06.699Z,99.90
2019-04-25T18:41:46.030Z,99.90
2019-04-25T18:44:14.954Z,99.90
2019-04-25T18:46:45.416Z,99.90
2019-04-25T18:49:15.924Z,99.90
2019-04-25T18:51:54.939Z,99.90
2019-04-25T18:54:47.414Z,99.90
2019-04-25T18:57:31.488Z,99.90
2019-04-25T19:00:18.099Z,99.90
2019-04-25T19:03:05.357Z,99.90
2019-04-25T19:05:49.667Z,99.90
2019-04-25T19:08:18.672Z,99.90
2019-04-25T19:10:47.398Z,99.90
2019-04-25T19:13:16.233Z,99.90
2019-04-25T19:15:45.218Z,99.90
2019-04-25T19:18:14.106Z,99.90
2019-04-25T19:20:46.053Z,99.90
2019-04-25T19:23:14.856Z,99.90
2019-04-25T19:25:43.786Z,99.90
2019-04-25T19:28:12.696Z,99.90
2019-04-25T19:30:41.472Z,99.90
2019-04-25T19:33:10.262Z,99.90
2019-04-25T19:35:39.328Z,99.90
2019-04-25T19:38:09.270Z,99.90
2019-04-25T19:41:03.269Z,99.90
2019-04-25T19:43:36.778Z,99.90
2019-04-25T19:46:05.656Z,99.90
2019-04-25T19:48:43.497Z,99.90
2019-04-25T19:51:12.396Z,99.90
2019-04-25T19:53:41.762Z,99.90
2019-04-25T19:56:11.029Z,99.90
2019-04-25T19:58:39.786Z,99.90
2019-04-25T20:01:08.677Z,99.90
2019-04-25T20:03:54.135Z,99.90
2019-04-25T20:06:24.804Z,99.90
2019-04-25T20:09:03.487Z,99.90
2019-04-25T20:11:36.650Z,99.90
2019-04-25T20:14:05.483Z,99.90
2019-04-25T20:16:41.395Z,99.90
2019-04-25T20:19:10.231Z,99.90
2019-04-25T20:21:39.355Z,99.90
2019-04-25T20:24:08.444Z,99.90
2019-04-25T20:26:37.219Z,99.90
2019-04-25T20:29:06.080Z,99.90
2019-04-25T20:31:35.000Z,99.90
2019-04-25T20:34:06.150Z,99.90
2019-04-25T20:36:34.317Z,99.90
2019-04-25T20:39:03.175Z,99.90
2019-04-25T20:41:32.206Z,99.90
2019-04-25T20:44:01.071Z,99.90
2019-04-25T20:46:29.949Z,99.90
2019-04-25T20:48:58.854Z,99.90
2019-04-25T20:51:27.671Z,99.90
2019-04-25T20:53:57.096Z,99.90
2019-04-25T20:56:26.103Z,99.90
2019-04-25T20:58:55.594Z,99.90
2019-04-25T21:01:24.612Z,99.90
2019-04-25T21:03:54.079Z,99.90
2019-04-25T21:06:30.560Z,99.90
2019-04-25T21:08:59.419Z,99.90
2019-04-25T21:11:28.228Z,99.90
2019-04-25T21:14:14.882Z,99.90
2019-04-25T21:17:08.928Z,99.90
2019-04-25T21:19:41.587Z,99.90
2019-04-25T21:22:10.441Z,99.90
2019-04-25T21:24:39.693Z,99.90
2019-04-25T21:27:08.527Z,99.90
2019-04-25T21:29:40.357Z,99.90
2019-04-25T21:32:09.289Z,99.90
2019-04-25T21:34:38.429Z,99.90
2019-04-25T21:37:07.455Z,99.90
2019-04-25T21:39:52.335Z,99.90
2019-04-25T21:42:29.017Z,99.90
2019-04-25T21:44:58.326Z,99.90
2019-04-25T21:47:27.791Z,99.90
2019-04-25T21:49:56.792Z,99.90
2019-04-25T21:52:27.483Z,99.90
2019-04-25T21:54:57.508Z,99.90
2019-04-25T21:57:26.638Z,99.90
2019-04-25T22:00:03.155Z,99.90
2019-04-25T22:02:27.226Z,99.90
2019-04-25T22:04:56.677Z,99.90
2019-04-25T22:07:25.869Z,99.90
2019-04-25T22:09:55.619Z,99.90
2019-04-25T22:12:24.945Z,99.90
2019-04-25T22:14:55.137Z,99.90
2019-04-25T22:17:24.597Z,99.90
2019-04-25T22:19:53.752Z,99.90
2019-04-25T22:22:22.967Z,99.90
2019-04-25T22:24:52.119Z,99.90
2019-04-25T22:27:26.413Z,99.90
2019-04-25T22:29:58.819Z,99.90
2019-04-25T22:32:46.842Z,99.90
2019-04-25T22:35:21.022Z,99.90
2019-04-25T22:37:50.008Z,99.90
2019-04-25T22:40:19.015Z,99.90
2019-04-25T22:42:47.882Z,99.90
2019-04-25T22:45:16.759Z,99.90
2019-04-25T22:47:45.575Z,99.90
2019-04-25T22:50:14.321Z,99.90
2019-04-25T22:52:43.091Z,99.90
2019-04-25T22:55:12.431Z,99.90
2019-04-25T22:57:41.549Z,99.90
2019-04-25T23:00:13.473Z,99.90
2019-04-25T23:02:49.260Z,99.90
2019-04-25T23:05:43.120Z,99.90
2019-04-25T23:08:12.614Z,99.90
2019-04-25T23:10:41.517Z,99.90
2019-04-25T23:13:10.946Z,99.90
2019-04-25T23:15:40.053Z,99.90
2019-04-25T23:18:09.394Z,99.90
2019-04-25T23:20:38.434Z,99.90
2019-04-25T23:23:07.645Z,99.90
2019-04-25T23:25:57.566Z,99.90
2019-04-25T23:28:29.441Z,99.90
2019-04-25T23:31:17.312Z,99.90
2019-04-25T23:33:46.206Z,99.90
2019-04-25T23:36:15.426Z,99.90
2019-04-25T23:38:44.217Z,99.90
2019-04-25T23:41:13.567Z,99.90
2019-04-25T23:43:42.461Z,99.90
2019-04-25T23:46:11.974Z,99.90
2019-04-25T23:48:40.910Z,99.90
2019-04-25T23:51:09.616Z,99.90
2019-04-25T23:53:38.631Z,99.90
2019-04-25T23:56:07.788Z,99.90
2019-04-25T23:58:37.721Z,99.90
